Time;durP1;ratioP1;P1;durP2;ratioP2;P2;SDS_P1;SDS_P2;PMS_P1;PMS_P2;Temp;Humidity;BMP_temperature;BMP_pressure;BME280_temperature;BME280_humidity;BME280_pressure;Samples;Min_cycle;Max_cycle;Signal;HPM_P1;HPM_P2
2023/05/07 00:00:40;;;;;;;6.82;4.30;;;26.80;99.90;;;;;;5030183;23;20058;-53
2023/05/07 00:03:06;;;;;;;5.82;3.38;;;26.80;99.90;;;;;;4994102;28;20026;-51
2023/05/07 00:05:32;;;;;;;4.93;3.45;;;26.80;99.90;;;;;;4994274;28;20032;-52
2023/05/07 00:07:58;;;;;;;7.07;4.50;;;26.70;99.90;;;;;;4993969;28;20037;-52
2023/05/07 00:10:25;;;;;;;5.25;3.00;;;26.70;99.90;;;;;;4994015;28;20109;-52
2023/05/07 00:12:51;;;;;;;5.25;3.40;;;26.70;99.90;;;;;;4994090;28;20022;-52
2023/05/07 00:15:16;;;;;;;4.57;3.13;;;26.70;99.90;;;;;;4992850;28;20411;-52
2023/05/07 00:17:42;;;;;;;5.15;2.97;;;26.70;99.90;;;;;;4992725;28;20101;-52
2023/05/07 00:20:08;;;;;;;4.10;2.85;;;26.70;99.90;;;;;;4992805;28;20056;-52
2023/05/07 00:22:34;;;;;;;5.50;3.88;;;26.70;99.90;;;;;;4993925;28;20029;-52
2023/05/07 00:25:00;;;;;;;5.53;3.20;;;26.70;99.90;;;;;;4993887;28;20084;-53
2023/05/07 00:27:26;;;;;;;4.28;3.25;;;26.70;99.90;;;;;;4993895;28;20018;-52
2023/05/07 00:29:51;;;;;;;6.13;3.47;;;26.70;99.90;;;;;;4993863;28;20022;-52
2023/05/07 00:32:17;;;;;;;5.20;3.35;;;26.70;99.90;;;;;;4993774;28;20053;-52
2023/05/07 00:34:44;;;;;;;5.72;3.83;;;26.70;99.90;;;;;;4993571;28;20038;-52
2023/05/07 00:37:09;;;;;;;3.75;2.95;;;26.70;99.90;;;;;;4993613;28;20026;-52
2023/05/07 00:39:36;;;;;;;5.55;3.58;;;26.70;99.90;;;;;;4992165;28;20027;-52
2023/05/07 00:42:02;;;;;;;4.57;2.80;;;26.70;99.90;;;;;;4993535;28;20018;-52
2023/05/07 00:44:29;;;;;;;6.20;3.43;;;26.70;99.90;;;;;;4993325;28;20507;-52
2023/05/07 00:46:57;;;;;;;6.73;4.00;;;26.70;99.90;;;;;;4993432;28;20338;-52
2023/05/07 00:49:34;;;;;;;5.35;3.03;;;26.70;99.90;;;;;;4993546;28;20264;-52
2023/05/07 00:52:00;;;;;;;4.40;3.10;;;26.70;99.90;;;;;;4993274;28;20018;-52
2023/05/07 00:54:26;;;;;;;4.47;3.08;;;26.70;99.90;;;;;;4993249;28;20477;-52
2023/05/07 00:56:52;;;;;;;4.22;2.97;;;26.70;99.90;;;;;;4993129;28;20029;-52
2023/05/07 00:59:18;;;;;;;4.50;3.13;;;26.70;99.90;;;;;;4993225;28;20415;-52
2023/05/07 01:01:45;;;;;;;4.68;2.78;;;26.70;99.90;;;;;;4993257;28;20046;-52
2023/05/07 01:04:10;;;;;;;4.07;2.78;;;26.70;99.90;;;;;;5004637;28;20100;-52
2023/05/07 01:06:37;;;;;;;3.58;2.58;;;26.70;99.90;;;;;;4994540;28;20468;-52
2023/05/07 01:09:04;;;;;;;3.83;2.83;;;26.70;99.90;;;;;;4993098;28;20124;-52
2023/05/07 01:11:30;;;;;;;3.83;2.72;;;26.70;99.90;;;;;;5005992;28;20017;-52
2023/05/07 01:13:58;;;;;;;3.65;2.60;;;26.60;99.90;;;;;;4992934;28;20039;-52
2023/05/07 01:16:24;;;;;;;3.88;2.58;;;26.70;99.90;;;;;;4992948;28;20468;-52
2023/05/07 01:18:50;;;;;;;4.07;2.55;;;26.70;99.90;;;;;;4993256;28;20102;-52
2023/05/07 01:21:17;;;;;;;4.68;2.70;;;26.70;99.90;;;;;;4992515;28;20054;-52
2023/05/07 01:23:45;;;;;;;2.83;2.15;;;26.60;99.90;;;;;;4992865;28;20018;-52
2023/05/07 01:26:10;;;;;;;2.88;2.00;;;26.60;99.90;;;;;;4992831;28;20030;-52
2023/05/07 01:28:36;;;;;;;4.35;2.47;;;26.60;99.90;;;;;;4992791;28;20518;-53
2023/05/07 01:31:05;;;;;;;3.42;2.45;;;26.60;99.90;;;;;;4992586;28;20022;-53
2023/05/07 01:33:35;;;;;;;4.60;2.40;;;26.60;99.90;;;;;;4992661;28;20019;-53
2023/05/07 01:36:03;;;;;;;4.30;2.50;;;26.60;99.90;;;;;;4992422;28;20157;-53
2023/05/07 01:38:29;;;;;;;2.08;1.77;;;26.60;99.90;;;;;;4992752;28;20069;-52
2023/05/07 01:40:56;;;;;;;3.22;2.00;;;26.60;99.90;;;;;;4992313;28;20027;-53
2023/05/07 01:43:22;;;;;;;4.20;2.20;;;26.60;99.90;;;;;;4992713;28;20018;-52
2023/05/07 01:45:49;;;;;;;4.10;2.50;;;26.60;99.90;;;;;;4992406;28;20027;-52
2023/05/07 01:48:15;;;;;;;2.28;2.08;;;26.60;99.90;;;;;;4992465;28;20039;-52
2023/05/07 01:50:43;;;;;;;3.50;2.47;;;26.60;99.90;;;;;;4991510;28;20084;-52
2023/05/07 01:53:08;;;;;;;3.03;2.00;;;26.60;99.90;;;;;;4991471;28;20023;-53
2023/05/07 01:55:36;;;;;;;2.55;2.00;;;26.60;99.90;;;;;;4992325;28;20042;-51
2023/05/07 01:58:02;;;;;;;3.65;2.28;;;26.60;99.90;;;;;;4992242;28;20077;-52
2023/05/07 02:00:28;;;;;;;1.58;1.48;;;26.60;99.90;;;;;;5007641;23;20065;-46
2023/05/07 02:02:54;;;;;;;2.95;1.90;;;26.60;99.90;;;;;;4992155;28;20399;-44
2023/05/07 02:05:20;;;;;;;3.50;1.85;;;26.60;99.90;;;;;;4992799;28;20430;-44
2023/05/07 02:07:46;;;;;;;2.40;2.10;;;26.60;99.90;;;;;;4992518;28;20427;-44
2023/05/07 02:10:12;;;;;;;3.22;2.00;;;26.60;99.90;;;;;;4995327;28;20109;-44
2023/05/07 02:12:38;;;;;;;3.30;1.85;;;26.60;99.90;;;;;;4996102;28;20022;-44
2023/05/07 02:15:04;;;;;;;2.50;1.58;;;26.60;99.90;;;;;;4994876;28;20034;-44
2023/05/07 02:17:31;;;;;;;3.03;2.03;;;26.60;99.90;;;;;;5009312;28;20379;-45
2023/05/07 02:19:57;;;;;;;2.83;1.80;;;26.60;99.90;;;;;;4995965;28;20046;-45
2023/05/07 02:22:23;;;;;;;2.67;1.70;;;26.50;99.90;;;;;;4996074;28;20061;-44
2023/05/07 02:24:49;;;;;;;2.65;1.60;;;26.60;99.90;;;;;;4996029;28;20100;-44
2023/05/07 02:27:15;;;;;;;3.70;1.92;;;26.50;99.90;;;;;;4996111;28;20022;-44
2023/05/07 02:29:40;;;;;;;2.85;2.08;;;26.60;99.90;;;;;;5009170;28;20062;-45
2023/05/07 02:32:06;;;;;;;2.10;1.65;;;26.50;99.90;;;;;;4995871;28;20033;-44
2023/05/07 02:34:32;;;;;;;5.53;1.95;;;26.60;99.90;;;;;;4995739;28;20038;-44
2023/05/07 02:36:58;;;;;;;2.03;1.75;;;26.60;99.90;;;;;;4995891;28;20452;-44
2023/05/07 02:39:24;;;;;;;2.88;1.90;;;26.50;99.90;;;;;;4995754;28;20027;-45
2023/05/07 02:41:49;;;;;;;3.30;1.65;;;26.50;99.90;;;;;;4995838;28;20018;-48
2023/05/07 02:44:15;;;;;;;2.38;1.70;;;26.50;99.90;;;;;;4995970;28;20492;-44
2023/05/07 02:46:41;;;;;;;2.70;1.65;;;26.50;99.90;;;;;;4995849;28;20428;-45
2023/05/07 02:49:06;;;;;;;2.42;1.75;;;26.50;99.90;;;;;;4995625;28;20472;-45
2023/05/07 02:51:32;;;;;;;4.40;1.92;;;26.50;99.90;;;;;;4999593;28;20475;-45
2023/05/07 02:53:58;;;;;;;3.10;1.95;;;26.50;99.90;;;;;;5006266;28;20027;-45
2023/05/07 02:56:26;;;;;;;3.10;1.70;;;26.50;99.90;;;;;;4995345;28;20031;-45
2023/05/07 02:58:52;;;;;;;2.20;1.67;;;26.50;99.90;;;;;;4995666;28;20104;-44
2023/05/07 03:01:17;;;;;;;2.30;1.48;;;26.50;99.90;;;;;;5006636;28;20099;-45
2023/05/07 03:03:44;;;;;;;2.72;1.95;;;26.50;99.90;;;;;;4995464;28;20030;-44
2023/05/07 03:06:10;;;;;;;3.03;1.55;;;26.50;99.90;;;;;;4995245;28;20024;-44
2023/05/07 03:08:36;;;;;;;4.03;2.08;;;26.50;99.90;;;;;;4995356;28;20025;-45
2023/05/07 03:11:02;;;;;;;2.22;1.58;;;26.50;99.90;;;;;;4995237;28;20030;-44
2023/05/07 03:13:28;;;;;;;3.90;1.65;;;26.50;99.90;;;;;;4993873;28;20033;-44
2023/05/07 03:15:54;;;;;;;3.35;1.90;;;26.50;99.90;;;;;;4994828;28;20034;-45
2023/05/07 03:18:19;;;;;;;2.75;1.42;;;26.50;99.90;;;;;;4995180;28;20019;-44
2023/05/07 03:20:48;;;;;;;3.47;1.25;;;26.50;99.90;;;;;;4995604;28;20476;-44
2023/05/07 03:23:13;;;;;;;2.45;1.60;;;26.50;99.90;;;;;;4995178;28;20027;-44
2023/05/07 03:25:39;;;;;;;2.63;1.48;;;26.50;99.90;;;;;;4994975;28;20033;-44
2023/05/07 03:28:05;;;;;;;2.13;1.35;;;26.40;99.90;;;;;;4994734;28;20030;-44
2023/05/07 03:30:31;;;;;;;2.28;1.48;;;26.50;99.90;;;;;;4994850;28;20025;-45
2023/05/07 03:32:57;;;;;;;2.72;1.50;;;26.40;99.90;;;;;;4994769;28;20453;-44
2023/05/07 03:35:22;;;;;;;1.85;1.40;;;26.50;99.90;;;;;;4994826;28;20045;-44
2023/05/07 03:37:48;;;;;;;2.20;1.02;;;26.50;99.90;;;;;;4994879;28;20057;-44
2023/05/07 03:40:14;;;;;;;2.08;1.13;;;26.50;99.90;;;;;;4994626;28;20061;-44
2023/05/07 03:42:40;;;;;;;2.70;1.08;;;26.40;99.90;;;;;;4994468;28;20033;-45
2023/05/07 03:45:07;;;;;;;1.60;1.45;;;26.40;99.90;;;;;;4994574;28;20034;-45
2023/05/07 03:47:32;;;;;;;2.30;1.33;;;26.40;99.90;;;;;;4994475;28;20029;-45
2023/05/07 03:49:59;;;;;;;3.58;1.42;;;26.40;99.90;;;;;;4994588;28;20407;-45
2023/05/07 03:52:25;;;;;;;2.65;1.10;;;26.40;99.90;;;;;;4994383;28;20026;-45
2023/05/07 03:54:52;;;;;;;1.70;1.33;;;26.40;99.90;;;;;;4994310;28;20037;-45
2023/05/07 03:57:18;;;;;;;1.98;1.25;;;26.40;99.90;;;;;;4994797;28;20375;-44
2023/05/07 03:59:44;;;;;;;2.20;1.05;;;26.40;99.90;;;;;;4994110;28;20093;-44
2023/05/07 04:02:09;;;;;;;2.30;1.30;;;26.40;99.90;;;;;;4994721;28;20073;-44
2023/05/07 04:04:35;;;;;;;4.70;1.33;;;26.40;99.90;;;;;;4994158;28;20392;-44
2023/05/07 04:07:01;;;;;;;1.48;1.20;;;26.40;99.90;;;;;;4994237;28;20383;-44
2023/05/07 04:09:27;;;;;;;2.70;1.30;;;26.40;99.90;;;;;;4994102;28;20077;-44
2023/05/07 04:11:53;;;;;;;3.33;1.92;;;26.40;99.90;;;;;;4994084;28;20050;-45
2023/05/07 04:14:18;;;;;;;2.17;0.95;;;26.40;99.90;;;;;;4994162;28;20030;-44
2023/05/07 04:16:44;;;;;;;2.13;1.15;;;26.40;99.90;;;;;;4994057;28;20468;-45
2023/05/07 04:19:10;;;;;;;3.35;1.10;;;26.40;99.90;;;;;;4993889;28;20113;-45
2023/05/07 04:21:35;;;;;;;2.83;1.17;;;26.40;99.90;;;;;;4994082;28;20049;-45
2023/05/07 04:24:03;;;;;;;2.85;1.58;;;26.40;99.90;;;;;;4993907;28;20030;-45
2023/05/07 04:26:29;;;;;;;2.47;1.10;;;26.40;99.90;;;;;;4993912;28;20358;-44
2023/05/07 04:28:55;;;;;;;2.60;0.95;;;26.40;99.90;;;;;;4993709;28;20033;-44
2023/05/07 04:31:20;;;;;;;3.20;1.10;;;26.40;99.90;;;;;;4993415;28;20387;-44
2023/05/07 04:33:46;;;;;;;2.95;1.10;;;26.40;99.90;;;;;;4993736;28;20059;-44
2023/05/07 04:36:12;;;;;;;2.08;0.93;;;26.40;99.90;;;;;;4993407;28;20432;-44
2023/05/07 04:38:38;;;;;;;2.55;1.10;;;26.30;99.90;;;;;;4992490;28;20353;-44
2023/05/07 04:41:06;;;;;;;1.90;1.02;;;26.30;99.90;;;;;;4993421;28;20026;-44
2023/05/07 04:43:32;;;;;;;2.10;0.90;;;26.30;99.90;;;;;;4993598;28;20380;-45
2023/05/07 04:45:58;;;;;;;2.13;0.98;;;26.30;99.90;;;;;;4993449;28;20022;-45
2023/05/07 04:48:24;;;;;;;1.83;0.85;;;26.40;99.90;;;;;;4993446;28;20027;-44
2023/05/07 04:50:50;;;;;;;1.73;0.90;;;26.30;99.90;;;;;;4992045;28;20018;-45
2023/05/07 04:53:17;;;;;;;2.88;1.35;;;26.30;99.90;;;;;;4992018;28;20034;-44
2023/05/07 04:55:44;;;;;;;1.73;0.93;;;26.30;99.90;;;;;;4993131;28;20528;-44
2023/05/07 04:58:11;;;;;;;1.23;0.98;;;26.30;99.90;;;;;;4992128;28;20022;-44
2023/05/07 05:00:37;;;;;;;1.58;1.27;;;26.30;99.90;;;;;;4992925;28;20404;-43
2023/05/07 05:03:03;;;;;;;1.15;0.90;;;26.30;99.90;;;;;;4993106;28;20026;-43
2023/05/07 05:05:29;;;;;;;2.50;0.88;;;26.30;99.90;;;;;;4993262;28;20022;-44
2023/05/07 05:07:54;;;;;;;1.23;0.77;;;26.30;99.90;;;;;;4992897;28;20076;-43
2023/05/07 05:10:21;;;;;;;2.03;1.20;;;26.30;99.90;;;;;;4993394;28;20101;-43
2023/05/07 05:12:47;;;;;;;1.98;1.20;;;26.30;99.90;;;;;;4992890;28;20029;-43
2023/05/07 05:15:13;;;;;;;1.35;0.77;;;26.30;99.90;;;;;;4992859;28;20050;-43
2023/05/07 05:17:39;;;;;;;2.03;0.75;;;26.30;99.90;;;;;;4991672;28;20028;-44
2023/05/07 05:20:06;;;;;;;2.83;0.93;;;26.30;99.90;;;;;;4992833;28;20085;-43
2023/05/07 05:22:32;;;;;;;1.42;1.15;;;26.30;99.90;;;;;;4991617;28;20068;-43
2023/05/07 05:24:58;;;;;;;1.50;0.80;;;26.30;99.90;;;;;;4992759;28;20038;-43
2023/05/07 05:27:24;;;;;;;1.63;0.90;;;26.30;99.90;;;;;;4991763;28;20034;-43
2023/05/07 05:29:50;;;;;;;2.60;0.75;;;26.30;99.90;;;;;;4992833;28;20026;-44
2023/05/07 05:32:15;;;;;;;1.60;0.93;;;26.30;99.90;;;;;;4992826;28;20538;-43
2023/05/07 05:34:41;;;;;;;2.08;0.80;;;26.30;99.90;;;;;;4996271;28;20030;-44
2023/05/07 05:37:07;;;;;;;1.27;0.80;;;26.30;99.90;;;;;;5001968;28;20102;-44
2023/05/07 05:39:33;;;;;;;3.28;1.10;;;26.30;99.90;;;;;;4992418;28;20022;-44
2023/05/07 05:41:58;;;;;;;2.53;1.30;;;26.30;99.90;;;;;;5001494;28;20080;-44
2023/05/07 05:44:25;;;;;;;3.03;0.90;;;26.30;99.90;;;;;;4995977;28;20023;-44
2023/05/07 05:46:51;;;;;;;2.30;0.85;;;26.30;99.90;;;;;;4992826;28;20046;-44
2023/05/07 05:49:16;;;;;;;1.80;1.10;;;26.30;99.90;;;;;;4992434;28;20030;-44
2023/05/07 05:51:43;;;;;;;1.73;0.90;;;26.20;99.90;;;;;;4992531;28;20053;-44
2023/05/07 05:54:09;;;;;;;2.90;1.20;;;26.20;99.90;;;;;;4992423;28;20492;-44
2023/05/07 05:56:35;;;;;;;1.92;1.10;;;26.30;99.90;;;;;;4992544;28;20014;-44
2023/05/07 05:59:00;;;;;;;1.08;0.70;;;26.30;99.90;;;;;;4992525;28;20031;-44
2023/05/07 06:01:26;;;;;;;1.13;0.82;;;26.30;99.90;;;;;;4992167;28;20046;-44
2023/05/07 06:03:52;;;;;;;1.33;0.70;;;26.30;99.90;;;;;;4991369;28;20141;-44
2023/05/07 06:06:18;;;;;;;1.75;0.98;;;26.30;99.90;;;;;;4992308;28;20031;-43
2023/05/07 06:08:44;;;;;;;1.05;0.70;;;26.20;99.90;;;;;;4992564;28;20033;-44
2023/05/07 06:11:09;;;;;;;1.60;1.10;;;26.30;99.90;;;;;;4992362;28;20094;-44
2023/05/07 06:13:35;;;;;;;2.13;0.90;;;26.20;99.90;;;;;;4992381;28;20082;-44
2023/05/07 06:16:01;;;;;;;2.22;1.33;;;26.30;99.90;;;;;;4990755;28;20061;-43
2023/05/07 06:18:27;;;;;;;1.50;1.00;;;26.20;99.90;;;;;;4992550;28;20035;-43
2023/05/07 06:20:53;;;;;;;1.70;1.02;;;26.20;99.90;;;;;;4992276;28;20114;-43
2023/05/07 06:23:19;;;;;;;1.47;0.90;;;26.20;99.90;;;;;;4992262;28;20030;-43
2023/05/07 06:25:50;;;;;;;1.77;0.90;;;26.20;99.90;;;;;;4992238;28;20496;-43
2023/05/07 06:28:16;;;;;;;2.10;1.10;;;26.20;99.90;;;;;;4992105;28;20411;-43
2023/05/07 06:30:42;;;;;;;2.50;1.65;;;26.20;99.90;;;;;;4992168;28;20056;-43
2023/05/07 06:33:07;;;;;;;1.45;0.90;;;26.20;99.90;;;;;;4992031;28;20469;-43
2023/05/07 06:35:33;;;;;;;1.52;0.93;;;26.20;99.90;;;;;;4992049;28;20487;-43
2023/05/07 06:38:00;;;;;;;1.27;1.15;;;26.20;99.90;;;;;;4991918;28;20018;-43
2023/05/07 06:40:26;;;;;;;1.80;1.10;;;26.20;99.90;;;;;;5001997;28;20026;-44
2023/05/07 06:42:52;;;;;;;1.33;0.88;;;26.30;99.90;;;;;;4994104;28;20057;-46
2023/05/07 06:45:19;;;;;;;1.55;1.00;;;26.30;99.90;;;;;;4992031;28;20026;-43
2023/05/07 06:47:44;;;;;;;1.90;0.90;;;26.30;99.90;;;;;;4991880;28;20015;-44
2023/05/07 06:50:11;;;;;;;1.77;0.93;;;26.30;99.90;;;;;;4992107;28;20063;-43
2023/05/07 06:52:36;;;;;;;1.00;0.77;;;26.30;99.90;;;;;;4991883;28;20384;-43
2023/05/07 06:55:02;;;;;;;1.15;0.80;;;26.30;99.90;;;;;;4991476;28;20045;-43
2023/05/07 06:57:28;;;;;;;1.92;1.05;;;26.30;99.90;;;;;;4995888;28;20022;-44
2023/05/07 06:59:54;;;;;;;7.00;0.80;;;26.30;99.90;;;;;;4995494;28;20041;-44
2023/05/07 07:02:19;;;;;;;2.85;1.35;;;26.30;99.90;;;;;;4993826;28;20054;-44
2023/05/07 07:04:45;;;;;;;2.78;1.17;;;26.30;99.90;;;;;;4995038;28;20030;-44
2023/05/07 07:07:11;;;;;;;2.17;1.27;;;26.30;99.90;;;;;;4995218;28;20026;-44
2023/05/07 07:09:37;;;;;;;3.97;1.05;;;26.30;99.90;;;;;;4995073;28;20037;-44
2023/05/07 07:12:03;;;;;;;1.85;1.08;;;26.30;99.90;;;;;;4993912;28;20100;-44
2023/05/07 07:14:28;;;;;;;2.45;0.85;;;26.30;99.90;;;;;;4994977;28;20412;-44
2023/05/07 07:16:54;;;;;;;1.65;1.10;;;26.30;99.90;;;;;;4994815;28;20026;-44
2023/05/07 07:19:20;;;;;;;1.45;1.00;;;26.30;99.90;;;;;;4994802;28;20392;-46
2023/05/07 07:21:46;;;;;;;2.95;1.00;;;26.30;99.90;;;;;;4994751;28;20468;-46
2023/05/07 07:24:18;;;;;;;2.35;1.20;;;26.30;99.90;;;;;;4994973;28;20034;-46
2023/05/07 07:26:44;;;;;;;1.23;0.93;;;26.30;99.90;;;;;;4994790;28;20019;-46
2023/05/07 07:29:10;;;;;;;2.20;1.38;;;26.40;99.90;;;;;;4993723;28;20033;-46
2023/05/07 07:31:36;;;;;;;1.90;1.20;;;26.30;99.90;;;;;;4994641;28;20030;-46
2023/05/07 07:34:02;;;;;;;1.85;1.48;;;26.30;99.90;;;;;;4994548;28;20114;-46
2023/05/07 07:36:27;;;;;;;1.65;1.40;;;26.30;99.90;;;;;;4994935;28;20022;-46
2023/05/07 07:38:54;;;;;;;1.67;1.02;;;26.40;99.90;;;;;;4994689;28;20136;-46
2023/05/07 07:41:19;;;;;;;2.03;1.20;;;26.30;99.90;;;;;;4994686;28;20030;-46
2023/05/07 07:43:46;;;;;;;1.75;1.30;;;26.40;99.90;;;;;;4994543;28;20459;-46
2023/05/07 07:46:12;;;;;;;1.80;1.00;;;26.40;99.90;;;;;;4994517;28;20476;-46
2023/05/07 07:48:38;;;;;;;2.10;1.30;;;26.40;99.90;;;;;;4993258;28;20041;-45
2023/05/07 07:51:04;;;;;;;1.80;1.20;;;26.40;99.90;;;;;;4994359;28;20019;-46
2023/05/07 07:53:30;;;;;;;1.95;1.20;;;26.40;99.90;;;;;;4994439;28;20034;-46
2023/05/07 07:55:56;;;;;;;3.78;1.52;;;26.40;99.90;;;;;;4994209;28;20030;-45
2023/05/07 07:58:22;;;;;;;2.28;1.35;;;26.40;99.90;;;;;;4993054;28;20126;-45
2023/05/07 08:00:48;;;;;;;3.17;1.45;;;26.40;99.90;;;;;;4994024;28;20070;-46
2023/05/07 08:03:16;;;;;;;1.70;1.10;;;26.40;99.90;;;;;;4993926;28;20023;-46
2023/05/07 08:05:42;;;;;;;3.70;1.50;;;26.40;99.90;;;;;;4993029;28;20058;-45
2023/05/07 08:08:08;;;;;;;2.67;1.35;;;26.40;99.90;;;;;;4996504;28;20025;-45
2023/05/07 08:10:34;;;;;;;3.22;1.27;;;26.40;99.90;;;;;;5000854;28;20404;-45
2023/05/07 08:13:00;;;;;;;1.95;1.20;;;26.40;99.90;;;;;;4992757;28;20388;-45
2023/05/07 08:15:26;;;;;;;3.08;1.40;;;26.40;99.90;;;;;;4992612;28;20038;-45
2023/05/07 08:17:52;;;;;;;2.53;1.58;;;26.40;99.90;;;;;;4993883;28;20042;-45
2023/05/07 08:20:18;;;;;;;2.17;1.20;;;26.40;99.90;;;;;;4992626;28;20495;-45
2023/05/07 08:22:43;;;;;;;2.95;1.40;;;26.40;99.90;;;;;;4993793;28;20515;-45
2023/05/07 08:25:09;;;;;;;1.90;1.17;;;26.40;99.90;;;;;;4993753;28;20109;-45
2023/05/07 08:27:35;;;;;;;3.88;1.63;;;26.40;99.90;;;;;;4993471;28;20128;-45
2023/05/07 08:30:01;;;;;;;11.05;3.10;;;26.40;99.90;;;;;;4992386;28;20030;-45
2023/05/07 08:32:27;;;;;;;13.77;4.43;;;26.40;99.90;;;;;;4992566;28;20125;-46
2023/05/07 08:34:53;;;;;;;16.52;4.95;;;26.40;99.90;;;;;;4993370;28;20546;-45
2023/05/07 08:37:19;;;;;;;23.55;5.47;;;26.40;99.90;;;;;;4993359;28;20041;-44
2023/05/07 08:39:45;;;;;;;16.83;4.82;;;26.40;99.90;;;;;;4993087;28;20030;-44
2023/05/07 08:42:12;;;;;;;16.60;5.28;;;26.30;99.90;;;;;;4993422;28;20101;-44
2023/05/07 08:44:39;;;;;;;18.50;4.90;;;26.30;99.90;;;;;;4993302;28;20033;-45
2023/05/07 08:47:07;;;;;;;17.13;4.25;;;26.30;99.90;;;;;;4993262;28;20022;-45
2023/05/07 08:49:34;;;;;;;22.10;5.97;;;26.20;99.90;;;;;;4991818;28;20037;-46
2023/05/07 08:52:01;;;;;;;28.33;7.45;;;26.20;99.90;;;;;;4993192;28;20503;-49
2023/05/07 08:54:29;;;;;;;16.60;4.90;;;26.20;99.90;;;;;;4993139;28;20511;-48
2023/05/07 08:56:54;;;;;;;19.08;5.57;;;26.10;99.90;;;;;;4992900;28;20037;-46
2023/05/07 08:59:20;;;;;;;16.10;4.47;;;26.10;99.90;;;;;;4991673;28;20375;-45
2023/05/07 09:01:46;;;;;;;19.38;4.32;;;26.10;99.90;;;;;;4980754;28;20035;-47
2023/05/07 09:04:12;;;;;;;14.32;4.55;;;26.10;99.90;;;;;;4991111;28;20033;-45
2023/05/07 09:06:41;;;;;;;16.35;4.72;;;26.10;99.90;;;;;;4992397;28;20033;-45
2023/05/07 09:09:07;;;;;;;17.77;3.70;;;26.10;99.90;;;;;;4992934;28;20365;-45
2023/05/07 09:11:33;;;;;;;16.25;3.65;;;26.10;99.90;;;;;;4992373;28;20061;-46
2023/05/07 09:14:01;;;;;;;20.17;5.22;;;26.10;99.90;;;;;;4991453;28;20018;-45
2023/05/07 09:16:29;;;;;;;19.17;4.72;;;26.00;99.90;;;;;;4991347;28;20415;-45
2023/05/07 09:18:57;;;;;;;22.77;3.50;;;26.00;99.90;;;;;;4992454;28;20462;-46
2023/05/07 09:21:23;;;;;;;16.38;3.30;;;26.00;99.90;;;;;;4992543;28;20026;-46
2023/05/07 09:23:51;;;;;;;14.70;3.75;;;26.00;99.90;;;;;;4992691;28;20092;-47
2023/05/07 09:26:17;;;;;;;17.88;4.80;;;26.00;99.90;;;;;;4991053;28;20032;-46
2023/05/07 09:28:44;;;;;;;17.77;4.88;;;26.00;99.90;;;;;;4992420;28;20029;-45
2023/05/07 09:31:11;;;;;;;13.13;4.03;;;26.00;99.90;;;;;;4982504;28;20050;-45
2023/05/07 09:33:37;;;;;;;14.52;3.45;;;25.90;99.90;;;;;;4990163;28;20911;-46
2023/05/07 09:36:04;;;;;;;10.55;2.60;;;26.00;99.90;;;;;;4988382;28;20249;-46
2023/05/07 09:38:31;;;;;;;11.18;3.20;;;26.00;99.90;;;;;;4987922;28;20053;-45
2023/05/07 09:41:09;;;;;;;16.25;3.70;;;25.90;99.90;;;;;;4989724;28;20149;-45
2023/05/07 09:43:36;;;;;;;12.68;3.72;;;26.00;99.90;;;;;;4987607;28;20045;-46
2023/05/07 09:46:16;;;;;;;16.42;4.03;;;25.90;99.90;;;;;;4989952;28;20041;-46
2023/05/07 09:48:43;;;;;;;11.38;2.75;;;25.90;99.90;;;;;;4988937;28;20113;-46
2023/05/07 09:51:41;;;;;;;14.43;3.47;;;25.90;99.90;;;;;;4990245;28;20124;-46
2023/05/07 09:54:07;;;;;;;10.13;3.40;;;25.90;99.90;;;;;;4989784;28;20041;-48
2023/05/07 09:56:34;;;;;;;14.60;3.47;;;25.90;99.90;;;;;;4989878;28;20030;-46
2023/05/07 09:59:01;;;;;;;13.32;3.35;;;25.90;99.90;;;;;;4990259;28;20030;-46
2023/05/07 10:01:27;;;;;;;9.30;2.78;;;25.90;99.90;;;;;;4989443;28;20057;-46
2023/05/07 10:03:54;;;;;;;7.83;2.97;;;25.90;99.90;;;;;;4990197;28;20027;-46
2023/05/07 10:06:21;;;;;;;19.30;3.55;;;25.90;99.90;;;;;;4989674;28;20165;-46
2023/05/07 10:08:48;;;;;;;8.73;2.72;;;25.80;99.90;;;;;;4989726;28;20141;-48
2023/05/07 10:11:15;;;;;;;7.43;2.70;;;25.80;99.90;;;;;;4986468;28;20113;-48
2023/05/07 10:13:41;;;;;;;;;;;25.80;99.90;;;;;;4988988;28;20038;-47
2023/05/07 10:16:07;;;;;;;6.68;2.47;;;25.80;99.90;;;;;;4988094;28;20328;-46
2023/05/07 10:18:33;;;;;;;10.02;2.95;;;25.80;99.90;;;;;;4989162;28;20105;-46
2023/05/07 10:21:20;;;;;;;10.13;2.63;;;25.80;99.90;;;;;;4989867;28;20053;-47
2023/05/07 10:23:59;;;;;;;8.70;2.88;;;25.70;99.90;;;;;;4988879;28;20081;-47
2023/05/07 10:26:29;;;;;;;8.05;2.78;;;25.70;99.90;;;;;;4989467;28;20025;-46
2023/05/07 10:29:03;;;;;;;6.63;2.28;;;25.70;99.90;;;;;;4989517;28;20023;-46
2023/05/07 10:31:54;;;;;;;8.40;2.10;;;25.60;99.90;;;;;;4993006;28;20102;-46
2023/05/07 10:34:41;;;;;;;8.88;4.07;;;25.60;99.90;;;;;;4991533;28;20045;-46
2023/05/07 10:37:08;;;;;;;8.63;3.00;;;25.60;99.90;;;;;;4993662;28;20053;-46
2023/05/07 10:39:34;;;;;;;8.88;2.15;;;25.70;99.90;;;;;;4992566;28;20485;-46
2023/05/07 10:42:14;;;;;;;11.23;2.40;;;25.60;99.90;;;;;;4988490;28;20046;-46
2023/05/07 10:44:40;;;;;;;7.47;2.13;;;25.60;99.90;;;;;;4993416;28;20041;-45
2023/05/07 10:47:11;;;;;;;6.65;2.45;;;25.70;99.90;;;;;;4991547;28;20422;-46
2023/05/07 10:50:06;;;;;;;11.27;3.90;;;25.70;99.90;;;;;;4991565;28;20039;-46
2023/05/07 10:52:31;;;;;;;11.10;3.97;;;25.70;99.90;;;;;;4992888;28;20070;-46
2023/05/07 10:55:18;;;;;;;14.07;6.13;;;25.80;99.90;;;;;;4993011;28;20034;-46
2023/05/07 10:57:44;;;;;;;6.13;1.95;;;25.80;99.90;;;;;;4988631;28;20121;-45
2023/05/07 11:00:25;;;;;;;7.93;2.70;;;25.90;99.90;;;;;;4990831;28;20113;-46
2023/05/07 11:03:00;;;;;;;7.68;1.77;;;25.90;99.90;;;;;;4991581;28;20101;-46
2023/05/07 11:05:30;;;;;;;7.55;2.55;;;26.00;99.90;;;;;;4992180;28;20023;-45
2023/05/07 11:08:03;;;;;;;5.85;2.33;;;26.00;99.90;;;;;;4992788;28;20035;-46
2023/05/07 11:10:48;;;;;;;10.65;4.88;;;26.10;99.90;;;;;;4991489;28;20037;-45
2023/05/07 11:13:15;;;;;;;8.00;2.03;;;26.10;99.90;;;;;;4987330;28;20042;-45
2023/05/07 11:15:48;;;;;;;5.70;2.67;;;26.10;99.90;;;;;;4988575;28;20053;-45
2023/05/07 11:18:17;;;;;;;6.60;1.70;;;26.10;99.90;;;;;;4989014;28;20034;-45
2023/05/07 11:20:50;;;;;;;8.52;3.78;;;26.20;99.90;;;;;;4989359;28;20077;-46
2023/05/07 11:23:35;;;;;;;9.75;3.10;;;26.20;99.90;;;;;;4991258;28;20030;-47
2023/05/07 11:26:06;;;;;;;6.68;2.90;;;26.20;99.90;;;;;;4989208;28;20078;-46
2023/05/07 11:28:37;;;;;;;5.43;2.05;;;26.20;99.90;;;;;;4989311;28;20046;-46
2023/05/07 11:31:04;;;;;;;7.63;3.65;;;26.20;99.90;;;;;;4989652;28;20034;-46
2023/05/07 11:33:33;;;;;;;9.38;2.85;;;26.30;99.90;;;;;;4992195;28;20019;-50
2023/05/07 11:36:00;;;;;;;7.00;2.42;;;26.30;99.90;;;;;;4991223;28;20470;-50
2023/05/07 11:38:26;;;;;;;5.13;1.90;;;26.40;99.90;;;;;;4991525;28;20026;-49
2023/05/07 11:40:53;;;;;;;4.40;2.55;;;26.40;99.90;;;;;;4989018;28;20503;-50
2023/05/07 11:43:19;;;;;;;6.32;2.92;;;26.50;99.90;;;;;;4985458;28;20026;-51
2023/05/07 11:45:46;;;;;;;14.73;7.15;;;26.50;99.90;;;;;;4988362;28;20448;-51
2023/05/07 11:48:13;;;;;;;13.80;10.13;;;26.60;99.90;;;;;;4987899;28;20084;-48
2023/05/07 11:50:52;;;;;;;;;;;26.60;99.90;;;;;;4988286;28;20017;-48
2023/05/07 11:53:19;;;;;;;13.02;8.93;;;26.70;99.90;;;;;;4992351;28;19906;-48
2023/05/07 11:55:45;;;;;;;14.35;8.45;;;26.70;99.90;;;;;;4988440;28;20038;-49
2023/05/07 11:58:20;;;;;;;34.00;9.90;;;26.70;99.90;;;;;;4988604;28;20046;-49
2023/05/07 12:00:53;;;;;;;8.65;7.10;;;26.80;99.90;;;;;;4988691;28;20057;-47
2023/05/07 12:03:19;;;;;;;12.50;7.45;;;26.80;99.90;;;;;;4988797;28;20019;-49
2023/05/07 12:05:46;;;;;;;12.02;7.45;;;26.80;99.90;;;;;;4990984;28;20039;-49
2023/05/07 12:08:20;;;;;;;9.98;6.28;;;26.80;99.90;;;;;;4988832;28;20026;-49
2023/05/07 12:10:49;;;;;;;10.27;6.70;;;26.90;99.90;;;;;;4990558;28;20370;-48
2023/05/07 12:13:24;;;;;;;11.07;6.03;;;26.90;99.90;;;;;;4986754;28;20121;-51
2023/05/07 12:15:56;;;;;;;8.32;5.95;;;26.90;99.90;;;;;;4989650;28;20041;-50
2023/05/07 12:18:23;;;;;;;7.15;4.35;;;26.90;99.90;;;;;;4986187;28;20030;-47
2023/05/07 12:20:50;;;;;;;10.10;5.13;;;26.90;99.90;;;;;;4989162;28;20030;-47
2023/05/07 12:23:16;;;;;;;7.85;5.53;;;26.90;99.90;;;;;;4992070;28;20034;-47
2023/05/07 12:25:46;;;;;;;6.47;5.07;;;27.00;99.90;;;;;;4991838;28;20830;-46
2023/05/07 12:28:17;;;;;;;8.60;5.43;;;27.00;99.90;;;;;;4991120;28;20033;-47
2023/05/07 12:30:44;;;;;;;6.85;5.28;;;27.00;99.90;;;;;;4991984;28;20038;-47
2023/05/07 12:33:11;;;;;;;11.10;5.60;;;27.00;99.90;;;;;;4991231;28;20556;-47
2023/05/07 12:35:41;;;;;;;9.18;5.00;;;27.10;99.90;;;;;;4991549;28;20042;-47
2023/05/07 12:38:17;;;;;;;11.68;7.30;;;27.10;99.90;;;;;;4988366;28;20037;-47
2023/05/07 12:40:50;;;;;;;5.28;4.07;;;27.10;99.90;;;;;;4991861;28;20026;-48
2023/05/07 12:43:18;;;;;;;8.25;5.32;;;27.10;99.90;;;;;;4991200;28;20037;-46
2023/05/07 12:45:44;;;;;;;10.07;4.82;;;27.10;99.90;;;;;;4991330;28;20030;-47